sensor_id;sensor_type;location;lat;lon;timestamp;temperature;humidity
21282;DHT22;10800;53.096;18.328;2023-04-06T00:01:06;0.90;99.90
21282;DHT22;10800;53.096;18.328;2023-04-06T00:06:11;0.90;99.90
21282;DHT22;10800;53.096;18.328;2023-04-06T00:11:18;0.90;99.90
21282;DHT22;10800;53.096;18.328;2023-04-06T00:16:24;0.90;99.90
21282;DHT22;10800;53.096;18.328;2023-04-06T00:21:30;1.00;99.90
21282;DHT22;10800;53.096;18.328;2023-04-06T00:26:36;1.00;99.90
21282;DHT22;10800;53.096;18.328;2023-04-06T00:31:41;1.00;99.90
21282;DHT22;10800;53.096;18.328;2023-04-06T00:36:46;1.00;99.90
21282;DHT22;10800;53.096;18.328;2023-04-06T00:41:53;1.00;99.90
21282;DHT22;10800;53.096;18.328;2023-04-06T00:46:59;1.00;99.90
21282;DHT22;10800;53.096;18.328;2023-04-06T00:52:04;1.10;99.90
21282;DHT22;10800;53.096;18.328;2023-04-06T00:57:12;1.10;99.90
21282;DHT22;10800;53.096;18.328;2023-04-06T01:02:18;1.10;99.90
21282;DHT22;10800;53.096;18.328;2023-04-06T01:07:23;1.20;99.90
21282;DHT22;10800;53.096;18.328;2023-04-06T01:12:29;1.10;99.90
21282;DHT22;10800;53.096;18.328;2023-04-06T01:17:34;1.10;99.90
21282;DHT22;10800;53.096;18.328;2023-04-06T01:22:39;1.10;99.90
21282;DHT22;10800;53.096;18.328;2023-04-06T01:27:45;1.10;99.90
21282;DHT22;10800;53.096;18.328;2023-04-06T01:32:50;1.10;99.90
21282;DHT22;10800;53.096;18.328;2023-04-06T01:37:55;1.10;99.90
21282;DHT22;10800;53.096;18.328;2023-04-06T01:43:01;1.10;99.90
21282;DHT22;10800;53.096;18.328;2023-04-06T01:48:07;1.10;99.90
21282;DHT22;10800;53.096;18.328;2023-04-06T01:53:12;1.00;99.90
21282;DHT22;10800;53.096;18.328;2023-04-06T01:58:18;1.00;99.90
21282;DHT22;10800;53.096;18.328;2023-04-06T02:03:23;0.90;99.90
21282;DHT22;10800;53.096;18.328;2023-04-06T02:08:28;0.80;99.90
21282;DHT22;10800;53.096;18.328;2023-04-06T02:13:34;0.80;99.90
21282;DHT22;10800;53.096;18.328;2023-04-06T02:18:39;0.80;99.90
21282;DHT22;10800;53.096;18.328;2023-04-06T02:23:44;0.80;99.90
21282;DHT22;10800;53.096;18.328;2023-04-06T02:28:49;0.80;99.90
21282;DHT22;10800;53.096;18.328;2023-04-06T02:33:54;0.80;99.90
21282;DHT22;10800;53.096;18.328;2023-04-06T02:38:59;0.90;99.90
21282;DHT22;10800;53.096;18.328;2023-04-06T02:44:09;0.90;99.90
21282;DHT22;10800;53.096;18.328;2023-04-06T02:49:14;0.90;99.90
21282;DHT22;10800;53.096;18.328;2023-04-06T02:54:19;0.90;99.90
21282;DHT22;10800;53.096;18.328;2023-04-06T02:59:24;1.00;99.90
21282;DHT22;10800;53.096;18.328;2023-04-06T03:04:30;1.00;99.90
21282;DHT22;10800;53.096;18.328;2023-04-06T03:09:37;1.00;99.90
21282;DHT22;10800;53.096;18.328;2023-04-06T03:14:42;1.10;99.90
21282;DHT22;10800;53.096;18.328;2023-04-06T03:19:47;1.10;99.90
21282;DHT22;10800;53.096;18.328;2023-04-06T03:24:53;1.10;99.90
21282;DHT22;10800;53.096;18.328;2023-04-06T03:29:58;1.10;99.90
21282;DHT22;10800;53.096;18.328;2023-04-06T03:35:03;1.10;99.90
21282;DHT22;10800;53.096;18.328;2023-04-06T03:40:09;1.10;99.90
21282;DHT22;10800;53.096;18.328;2023-04-06T03:45:15;1.10;99.90
21282;DHT22;10800;53.096;18.328;2023-04-06T03:50:20;1.10;99.90
21282;DHT22;10800;53.096;18.328;2023-04-06T03:55:25;1.10;99.90
21282;DHT22;10800;53.096;18.328;2023-04-06T04:00:30;1.10;99.90
21282;DHT22;10800;53.096;18.328;2023-04-06T04:05:37;1.10;99.90
21282;DHT22;10800;53.096;18.328;2023-04-06T04:10:42;1.10;99.90
21282;DHT22;10800;53.096;18.328;2023-04-06T04:15:47;1.10;99.90
21282;DHT22;10800;53.096;18.328;2023-04-06T04:20:52;1.10;99.90
21282;DHT22;10800;53.096;18.328;2023-04-06T04:25:58;1.10;99.90
21282;DHT22;10800;53.096;18.328;2023-04-06T04:31:03;1.20;99.90
21282;DHT22;10800;53.096;18.328;2023-04-06T04:36:08;1.10;99.90
21282;DHT22;10800;53.096;18.328;2023-04-06T04:41:14;1.20;99.90
21282;DHT22;10800;53.096;18.328;2023-04-06T04:46:20;1.20;99.90
21282;DHT22;10800;53.096;18.328;2023-04-06T04:51:26;1.30;99.90
21282;DHT22;10800;53.096;18.328;2023-04-06T04:56:31;1.30;99.90
21282;DHT22;10800;53.096;18.328;2023-04-06T05:01:36;1.30;99.90
21282;DHT22;10800;53.096;18.328;2023-04-06T05:06:42;1.40;99.90
21282;DHT22;10800;53.096;18.328;2023-04-06T05:11:48;1.40;99.90
21282;DHT22;10800;53.096;18.328;2023-04-06T05:16:54;1.50;99.90
21282;DHT22;10800;53.096;18.328;2023-04-06T05:21:59;1.60;99.90
21282;DHT22;10800;53.096;18.328;2023-04-06T05:27:04;1.70;99.90
21282;DHT22;10800;53.096;18.328;2023-04-06T05:32:10;1.80;99.90
21282;DHT22;10800;53.096;18.328;2023-04-06T05:37:15;1.80;99.90
21282;DHT22;10800;53.096;18.328;2023-04-06T05:42:20;1.90;99.90
21282;DHT22;10800;53.096;18.328;2023-04-06T05:47:26;2.00;99.90
21282;DHT22;10800;53.096;18.328;2023-04-06T05:52:31;2.10;99.90
21282;DHT22;10800;53.096;18.328;2023-04-06T05:57:36;2.20;99.90
21282;DHT22;10800;53.096;18.328;2023-04-06T06:02:41;2.30;99.90
21282;DHT22;10800;53.096;18.328;2023-04-06T06:07:47;2.30;99.90
21282;DHT22;10800;53.096;18.328;2023-04-06T06:12:52;2.40;99.90
21282;DHT22;10800;53.096;18.328;2023-04-06T06:17:58;2.60;99.90
21282;DHT22;10800;53.096;18.328;2023-04-06T06:23:03;2.80;99.90
21282;DHT22;10800;53.096;18.328;2023-04-06T06:28:08;3.00;99.90
21282;DHT22;10800;53.096;18.328;2023-04-06T06:33:14;3.20;99.90
21282;DHT22;10800;53.096;18.328;2023-04-06T06:38:19;3.40;99.90
21282;DHT22;10800;53.096;18.328;2023-04-06T06:43:26;3.70;99.90
21282;DHT22;10800;53.096;18.328;2023-04-06T06:48:32;3.90;99.90
21282;DHT22;10800;53.096;18.328;2023-04-06T06:53:37;4.20;99.90
21282;DHT22;10800;53.096;18.328;2023-04-06T06:58:42;4.30;99.90
21282;DHT22;10800;53.096;18.328;2023-04-06T07:03:47;4.50;98.00
21282;DHT22;10800;53.096;18.328;2023-04-06T07:08:53;4.70;97.40
21282;DHT22;10800;53.096;18.328;2023-04-06T07:13:58;4.80;95.20
21282;DHT22;10800;53.096;18.328;2023-04-06T07:19:03;4.90;92.80
21282;DHT22;10800;53.096;18.328;2023-04-06T07:24:08;5.10;90.90
21282;DHT22;10800;53.096;18.328;2023-04-06T07:29:14;5.20;88.10
21282;DHT22;10800;53.096;18.328;2023-04-06T07:34:19;5.40;89.10
21282;DHT22;10800;53.096;18.328;2023-04-06T07:39:24;5.70;84.30
21282;DHT22;10800;53.096;18.328;2023-04-06T07:44:31;6.10;77.00
21282;DHT22;10800;53.096;18.328;2023-04-06T07:49:37;6.60;77.30
21282;DHT22;10800;53.096;18.328;2023-04-06T07:54:42;7.20;75.80
21282;DHT22;10800;53.096;18.328;2023-04-06T07:59:48;7.40;70.60
21282;DHT22;10800;53.096;18.328;2023-04-06T08:04:53;7.70;69.50
21282;DHT22;10800;53.096;18.328;2023-04-06T08:09:58;7.50;66.70
21282;DHT22;10800;53.096;18.328;2023-04-06T08:15:04;7.10;68.20
21282;DHT22;10800;53.096;18.328;2023-04-06T08:20:10;7.70;65.70
21282;DHT22;10800;53.096;18.328;2023-04-06T08:25:15;7.60;65.50
21282;DHT22;10800;53.096;18.328;2023-04-06T08:30:20;7.20;66.60
21282;DHT22;10800;53.096;18.328;2023-04-06T08:35:27;7.40;64.20
21282;DHT22;10800;53.096;18.328;2023-04-06T08:40:39;7.20;63.80
21282;DHT22;10800;53.096;18.328;2023-04-06T08:45:46;7.20;63.80
21282;DHT22;10800;53.096;18.328;2023-04-06T08:50:52;7.00;63.60
21282;DHT22;10800;53.096;18.328;2023-04-06T08:55:59;6.80;65.40
21282;DHT22;10800;53.096;18.328;2023-04-06T09:01:06;7.10;65.50
21282;DHT22;10800;53.096;18.328;2023-04-06T09:06:13;8.80;59.40
21282;DHT22;10800;53.096;18.328;2023-04-06T09:11:20;9.90;58.70
21282;DHT22;10800;53.096;18.328;2023-04-06T09:16:25;9.60;56.60
21282;DHT22;10800;53.096;18.328;2023-04-06T09:21:31;9.70;57.30
21282;DHT22;10800;53.096;18.328;2023-04-06T09:26:46;9.60;57.60
21282;DHT22;10800;53.096;18.328;2023-04-06T09:31:47;9.70;60.90
21282;DHT22;10800;53.096;18.328;2023-04-06T09:36:52;9.90;57.90
21282;DHT22;10800;53.096;18.328;2023-04-06T09:41:58;9.80;57.80
21282;DHT22;10800;53.096;18.328;2023-04-06T09:47:05;10.00;57.40
21282;DHT22;10800;53.096;18.328;2023-04-06T09:52:15;9.60;59.00
21282;DHT22;10800;53.096;18.328;2023-04-06T09:57:29;10.00;56.70
21282;DHT22;10800;53.096;18.328;2023-04-06T10:02:58;8.70;56.80
21282;DHT22;10800;53.096;18.328;2023-04-06T10:08:08;8.40;59.80
21282;DHT22;10800;53.096;18.328;2023-04-06T10:13:19;8.30;61.60
21282;DHT22;10800;53.096;18.328;2023-04-06T10:18:25;8.30;61.30
21282;DHT22;10800;53.096;18.328;2023-04-06T10:28:42;8.50;61.00
21282;DHT22;10800;53.096;18.328;2023-04-06T10:33:59;9.50;59.70
21282;DHT22;10800;53.096;18.328;2023-04-06T10:39:06;9.50;58.40
21282;DHT22;10800;53.096;18.328;2023-04-06T10:44:21;8.70;58.80
21282;DHT22;10800;53.096;18.328;2023-04-06T10:49:30;8.50;59.20
21282;DHT22;10800;53.096;18.328;2023-04-06T10:54:38;8.50;60.10
21282;DHT22;10800;53.096;18.328;2023-04-06T10:59:44;9.20;60.00
21282;DHT22;10800;53.096;18.328;2023-04-06T11:04:59;9.90;58.70
21282;DHT22;10800;53.096;18.328;2023-04-06T11:10:04;9.80;57.90
21282;DHT22;10800;53.096;18.328;2023-04-06T11:15:15;9.50;57.30
21282;DHT22;10800;53.096;18.328;2023-04-06T11:20:20;10.50;57.20
21282;DHT22;10800;53.096;18.328;2023-04-06T11:25:27;11.10;56.30
21282;DHT22;10800;53.096;18.328;2023-04-06T11:30:34;11.20;55.20
21282;DHT22;10800;53.096;18.328;2023-04-06T11:35:39;10.00;56.40
21282;DHT22;10800;53.096;18.328;2023-04-06T11:40:45;10.00;57.20
21282;DHT22;10800;53.096;18.328;2023-04-06T11:45:50;10.20;56.80
21282;DHT22;10800;53.096;18.328;2023-04-06T11:50:59;10.00;58.80
21282;DHT22;10800;53.096;18.328;2023-04-06T11:56:05;10.40;57.00
21282;DHT22;10800;53.096;18.328;2023-04-06T12:01:10;10.50;57.30
21282;DHT22;10800;53.096;18.328;2023-04-06T12:06:16;10.50;58.10
21282;DHT22;10800;53.096;18.328;2023-04-06T12:11:21;10.60;58.20
21282;DHT22;10800;53.096;18.328;2023-04-06T12:16:27;11.00;56.10
21282;DHT22;10800;53.096;18.328;2023-04-06T12:21:34;11.10;55.40
21282;DHT22;10800;53.096;18.328;2023-04-06T12:26:43;10.70;56.00
21282;DHT22;10800;53.096;18.328;2023-04-06T12:31:49;10.50;57.20
21282;DHT22;10800;53.096;18.328;2023-04-06T12:36:55;10.50;58.10
21282;DHT22;10800;53.096;18.328;2023-04-06T12:42:02;10.60;56.80
21282;DHT22;10800;53.096;18.328;2023-04-06T12:47:09;10.90;57.50
21282;DHT22;10800;53.096;18.328;2023-04-06T12:52:15;10.80;55.80
21282;DHT22;10800;53.096;18.328;2023-04-06T12:57:20;10.50;56.50
21282;DHT22;10800;53.096;18.328;2023-04-06T13:02:26;10.40;56.60
21282;DHT22;10800;53.096;18.328;2023-04-06T13:07:31;10.00;57.50
21282;DHT22;10800;53.096;18.328;2023-04-06T13:12:37;10.10;58.90
21282;DHT22;10800;53.096;18.328;2023-04-06T13:17:42;10.20;57.70
21282;DHT22;10800;53.096;18.328;2023-04-06T13:22:47;9.80;58.20
21282;DHT22;10800;53.096;18.328;2023-04-06T13:27:58;9.80;60.10
21282;DHT22;10800;53.096;18.328;2023-04-06T13:33:04;9.80;60.50
21282;DHT22;10800;53.096;18.328;2023-04-06T13:38:10;9.70;61.60
21282;DHT22;10800;53.096;18.328;2023-04-06T13:43:15;10.00;60.40
21282;DHT22;10800;53.096;18.328;2023-04-06T13:48:24;9.70;60.00
21282;DHT22;10800;53.096;18.328;2023-04-06T13:53:30;9.70;61.40
21282;DHT22;10800;53.096;18.328;2023-04-06T13:58:35;9.80;59.90
21282;DHT22;10800;53.096;18.328;2023-04-06T14:03:40;9.90;60.50
21282;DHT22;10800;53.096;18.328;2023-04-06T14:08:47;9.70;60.90
21282;DHT22;10800;53.096;18.328;2023-04-06T14:13:53;9.60;61.10
21282;DHT22;10800;53.096;18.328;2023-04-06T14:18:59;9.20;62.10
21282;DHT22;10800;53.096;18.328;2023-04-06T14:24:07;9.30;64.00
21282;DHT22;10800;53.096;18.328;2023-04-06T14:29:12;9.20;64.70
21282;DHT22;10800;53.096;18.328;2023-04-06T14:34:17;8.80;65.70
21282;DHT22;10800;53.096;18.328;2023-04-06T14:39:23;8.40;66.30
21282;DHT22;10800;53.096;18.328;2023-04-06T14:44:28;8.40;65.70
21282;DHT22;10800;53.096;18.328;2023-04-06T14:49:34;8.50;67.00
21282;DHT22;10800;53.096;18.328;2023-04-06T14:54:39;8.50;67.50
21282;DHT22;10800;53.096;18.328;2023-04-06T14:59:46;8.60;68.50
21282;DHT22;10800;53.096;18.328;2023-04-06T15:04:51;8.60;68.50
21282;DHT22;10800;53.096;18.328;2023-04-06T15:09:58;8.40;67.40
21282;DHT22;10800;53.096;18.328;2023-04-06T15:15:03;8.10;69.90
21282;DHT22;10800;53.096;18.328;2023-04-06T15:20:10;8.00;70.60
21282;DHT22;10800;53.096;18.328;2023-04-06T15:25:15;8.00;71.50
21282;DHT22;10800;53.096;18.328;2023-04-06T15:30:22;7.80;72.70
21282;DHT22;10800;53.096;18.328;2023-04-06T15:35:27;7.40;74.10
21282;DHT22;10800;53.096;18.328;2023-04-06T15:40:33;7.20;76.30
21282;DHT22;10800;53.096;18.328;2023-04-06T15:45:40;6.90;79.00
21282;DHT22;10800;53.096;18.328;2023-04-06T15:50:46;6.70;82.00
21282;DHT22;10800;53.096;18.328;2023-04-06T15:56:04;6.40;87.00
21282;DHT22;10800;53.096;18.328;2023-04-06T16:01:14;6.20;88.80
21282;DHT22;10800;53.096;18.328;2023-04-06T16:06:21;5.80;91.50
21282;DHT22;10800;53.096;18.328;2023-04-06T16:11:27;5.60;92.40
21282;DHT22;10800;53.096;18.328;2023-04-06T16:16:32;5.60;93.10
21282;DHT22;10800;53.096;18.328;2023-04-06T16:21:37;5.70;93.20
21282;DHT22;10800;53.096;18.328;2023-04-06T16:26:42;5.50;93.30
21282;DHT22;10800;53.096;18.328;2023-04-06T16:31:48;5.60;92.70
21282;DHT22;10800;53.096;18.328;2023-04-06T16:36:56;5.40;93.30
21282;DHT22;10800;53.096;18.328;2023-04-06T16:42:01;5.30;93.70
21282;DHT22;10800;53.096;18.328;2023-04-06T16:47:06;5.20;94.20
21282;DHT22;10800;53.096;18.328;2023-04-06T16:52:12;5.30;93.50
21282;DHT22;10800;53.096;18.328;2023-04-06T16:57:17;5.10;93.20
21282;DHT22;10800;53.096;18.328;2023-04-06T17:02:23;5.10;92.20
21282;DHT22;10800;53.096;18.328;2023-04-06T17:07:29;5.10;92.30
21282;DHT22;10800;53.096;18.328;2023-04-06T17:12:36;5.10;92.80
21282;DHT22;10800;53.096;18.328;2023-04-06T17:17:41;5.00;93.30
21282;DHT22;10800;53.096;18.328;2023-04-06T17:22:47;5.00;93.60
21282;DHT22;10800;53.096;18.328;2023-04-06T17:27:52;4.90;93.70
21282;DHT22;10800;53.096;18.328;2023-04-06T17:32:58;4.90;93.40
21282;DHT22;10800;53.096;18.328;2023-04-06T17:38:06;4.90;93.50
21282;DHT22;10800;53.096;18.328;2023-04-06T17:43:11;4.80;93.70
21282;DHT22;10800;53.096;18.328;2023-04-06T17:48:17;4.80;94.00
21282;DHT22;10800;53.096;18.328;2023-04-06T17:53:23;4.80;94.30
21282;DHT22;10800;53.096;18.328;2023-04-06T17:58:29;4.70;94.50
21282;DHT22;10800;53.096;18.328;2023-04-06T18:03:35;4.70;94.90
21282;DHT22;10800;53.096;18.328;2023-04-06T18:08:42;4.60;95.40
21282;DHT22;10800;53.096;18.328;2023-04-06T18:13:47;4.60;95.30
21282;DHT22;10800;53.096;18.328;2023-04-06T18:18:54;4.60;95.80
21282;DHT22;10800;53.096;18.328;2023-04-06T18:24:01;4.60;96.00
21282;DHT22;10800;53.096;18.328;2023-04-06T18:29:09;4.60;96.80
21282;DHT22;10800;53.096;18.328;2023-04-06T18:34:14;4.50;96.90
21282;DHT22;10800;53.096;18.328;2023-04-06T18:39:19;4.60;96.80
21282;DHT22;10800;53.096;18.328;2023-04-06T18:44:24;4.50;97.00
21282;DHT22;10800;53.096;18.328;2023-04-06T18:49:30;4.50;97.50
21282;DHT22;10800;53.096;18.328;2023-04-06T18:54:36;4.40;99.00
21282;DHT22;10800;53.096;18.328;2023-04-06T18:59:42;4.30;99.80
21282;DHT22;10800;53.096;18.328;2023-04-06T19:04:47;4.30;99.90
21282;DHT22;10800;53.096;18.328;2023-04-06T19:09:53;4.20;99.90
21282;DHT22;10800;53.096;18.328;2023-04-06T19:14:58;4.20;99.90
21282;DHT22;10800;53.096;18.328;2023-04-06T19:20:04;4.20;99.90
21282;DHT22;10800;53.096;18.328;2023-04-06T19:25:09;4.20;99.90
21282;DHT22;10800;53.096;18.328;2023-04-06T19:30:15;4.10;99.90
21282;DHT22;10800;53.096;18.328;2023-04-06T19:35:20;4.00;99.90
21282;DHT22;10800;53.096;18.328;2023-04-06T19:40:25;4.00;99.90
21282;DHT22;10800;53.096;18.328;2023-04-06T19:45:30;4.00;99.90
21282;DHT22;10800;53.096;18.328;2023-04-06T19:50:36;4.00;99.90
21282;DHT22;10800;53.096;18.328;2023-04-06T19:55:41;4.00;99.90
21282;DHT22;10800;53.096;18.328;2023-04-06T20:00:46;4.00;99.90
21282;DHT22;10800;53.096;18.328;2023-04-06T20:05:52;4.00;99.90
21282;DHT22;10800;53.096;18.328;2023-04-06T20:11:04;4.00;99.90
21282;DHT22;10800;53.096;18.328;2023-04-06T20:16:13;3.90;99.90
21282;DHT22;10800;53.096;18.328;2023-04-06T20:21:18;4.00;99.90
21282;DHT22;10800;53.096;18.328;2023-04-06T20:26:23;4.00;99.90
21282;DHT22;10800;53.096;18.328;2023-04-06T20:31:29;4.00;99.90
21282;DHT22;10800;53.096;18.328;2023-04-06T20:36:34;4.00;99.90
21282;DHT22;10800;53.096;18.328;2023-04-06T20:41:39;3.90;99.90
21282;DHT22;10800;53.096;18.328;2023-04-06T20:46:45;3.90;99.90
21282;DHT22;10800;53.096;18.328;2023-04-06T20:51:51;3.90;99.90
21282;DHT22;10800;53.096;18.328;2023-04-06T20:56:57;3.90;99.90
21282;DHT22;10800;53.096;18.328;2023-04-06T21:02:03;3.90;99.90
21282;DHT22;10800;53.096;18.328;2023-04-06T21:07:10;3.80;99.90
21282;DHT22;10800;53.096;18.328;2023-04-06T21:12:15;3.80;99.90
21282;DHT22;10800;53.096;18.328;2023-04-06T21:17:20;3.70;99.90
21282;DHT22;10800;53.096;18.328;2023-04-06T21:22:25;3.70;99.90
21282;DHT22;10800;53.096;18.328;2023-04-06T21:27:31;3.70;99.90
21282;DHT22;10800;53.096;18.328;2023-04-06T21:32:36;3.70;99.90
21282;DHT22;10800;53.096;18.328;2023-04-06T21:37:41;3.70;99.90
21282;DHT22;10800;53.096;18.328;2023-04-06T21:42:47;3.70;99.90
21282;DHT22;10800;53.096;18.328;2023-04-06T21:47:52;3.60;99.90
21282;DHT22;10800;53.096;18.328;2023-04-06T21:52:58;3.60;99.90
21282;DHT22;10800;53.096;18.328;2023-04-06T21:58:03;3.60;99.90
21282;DHT22;10800;53.096;18.328;2023-04-06T22:03:10;3.60;99.90
21282;DHT22;10800;53.096;18.328;2023-04-06T22:08:17;3.60;99.90
21282;DHT22;10800;53.096;18.328;2023-04-06T22:13:25;3.60;99.90
21282;DHT22;10800;53.096;18.328;2023-04-06T22:18:31;3.50;99.90
21282;DHT22;10800;53.096;18.328;2023-04-06T22:23:36;3.50;99.90
21282;DHT22;10800;53.096;18.328;2023-04-06T22:28:43;3.60;99.90
21282;DHT22;10800;53.096;18.328;2023-04-06T22:33:48;3.60;99.90
21282;DHT22;10800;53.096;18.328;2023-04-06T22:38:54;3.60;99.90
21282;DHT22;10800;53.096;18.328;2023-04-06T22:43:59;3.60;99.90
21282;DHT22;10800;53.096;18.328;2023-04-06T22:49:05;3.50;99.90
21282;DHT22;10800;53.096;18.328;2023-04-06T22:54:11;3.50;99.90
21282;DHT22;10800;53.096;18.328;2023-04-06T22:59:17;3.60;99.90
21282;DHT22;10800;53.096;18.328;2023-04-06T23:04:22;3.60;99.90
21282;DHT22;10800;53.096;18.328;2023-04-06T23:09:28;3.50;99.90
21282;DHT22;10800;53.096;18.328;2023-04-06T23:14:33;3.50;99.90
21282;DHT22;10800;53.096;18.328;2023-04-06T23:19:38;3.50;99.90
21282;DHT22;10800;53.096;18.328;2023-04-06T23:24:43;3.50;99.90
21282;DHT22;10800;53.096;18.328;2023-04-06T23:29:50;3.50;99.90
21282;DHT22;10800;53.096;18.328;2023-04-06T23:34:55;3.60;99.90
21282;DHT22;10800;53.096;18.328;2023-04-06T23:40:00;3.50;99.90
21282;DHT22;10800;53.096;18.328;2023-04-06T23:45:08;3.50;99.90
21282;DHT22;10800;53.096;18.328;2023-04-06T23:50:13;3.50;99.90
21282;DHT22;10800;53.096;18.328;2023-04-06T23:55:19;3.60;99.90
